Time;durP1;ratioP1;P1;durP2;ratioP2;P2;SDS_P1;SDS_P2;PMS_P1;PMS_P2;Temp;Humidity;BMP_temperature;BMP_pressure;BME280_temperature;BME280_humidity;BME280_pressure;Samples;Min_cycle;Max_cycle;Signal;HPM_P1;HPM_P2
2024/02/02 07:11:58;;;;;;;;;7.00;7.00;;;;;20.84;42.42;103229.25;6204051;22;46308;31
2024/02/02 07:14:45;;;;;;;;;7.00;7.00;;;;;21.27;42.13;103303.81;6240055;22;45463;-74
2024/02/02 07:17:45;;;;;;;;;7.67;7.00;;;;;21.23;42.50;103307.66;6242627;22;45327;-74
2024/02/02 07:20:58;;;;;;;;;6.33;5.33;;;;;21.28;42.18;103307.31;6147343;23;45245;-74
2024/02/02 07:23:31;;;;;;;;;10.00;6.67;;;;;21.27;42.13;103322.34;6148520;22;46418;-75
2024/02/02 07:25:57;;;;;;;;;7.33;7.33;;;;;21.27;42.22;103319.69;6148732;23;45318;-74
2024/02/02 07:28:37;;;;;;;;;8.67;7.00;;;;;21.22;41.80;103313.91;6148594;23;45358;-74
2024/02/02 07:31:04;;;;;;;;;7.67;7.00;;;;;21.27;42.00;103330.28;6148513;23;45462;-75
2024/02/02 07:33:43;;;;;;;;;9.00;6.75;;;;;21.27;41.81;103329.44;6148961;23;45287;-74
2024/02/02 07:36:20;;;;;;;;;8.25;5.25;;;;;20.90;42.26;103274.72;6149210;23;45355;-75
2024/02/02 07:38:55;;;;;;;;;7.00;7.00;;;;;21.20;41.59;103337.00;6149288;23;45256;-74
2024/02/02 07:41:23;;;;;;;;;8.25;6.00;;;;;21.20;41.83;103337.00;6149545;23;45328;-74
2024/02/02 07:43:49;;;;;;;;;9.25;6.75;;;;;21.24;42.14;103348.19;6148205;23;46884;-74
2024/02/02 07:46:15;;;;;;;;;6.25;6.25;;;;;20.91;41.92;103289.66;6124716;23;45368;-78
2024/02/02 07:48:41;;;;;;;;;8.00;7.00;;;;;21.13;42.23;103326.00;6149682;23;45298;-78
2024/02/02 07:51:07;;;;;;;;;5.50;5.50;;;;;21.15;41.83;103328.56;6148983;23;45551;-78
2024/02/02 07:53:33;;;;;;;;;6.75;6.00;;;;;21.09;41.61;103313.97;6148784;23;46166;-78
2024/02/02 07:55:59;;;;;;;;;7.67;4.67;;;;;21.17;41.96;103330.13;6204769;22;45293;-79
2024/02/02 07:58:24;;;;;;;;;9.75;7.25;;;;;21.07;41.87;103318.53;6242541;22;45325;-78
2024/02/02 08:00:50;;;;;;;;;7.50;6.75;;;;;21.24;41.64;103337.59;6243048;22;45424;-78
2024/02/02 08:03:16;;;;;;;;;6.33;5.67;;;;;21.24;41.73;103341.09;6242210;22;47081;-78
2024/02/02 08:05:41;;;;;;;;;7.50;6.75;;;;;21.03;41.47;103307.31;6242272;22;45346;-78
2024/02/02 08:08:07;;;;;;;;;9.00;7.75;;;;;21.12;41.56;103320.84;6243025;22;45241;-78
2024/02/02 08:10:33;;;;;;;;;7.00;5.33;;;;;21.12;41.95;103329.63;6242261;22;45342;-78
2024/02/02 08:12:58;;;;;;;;;6.50;6.50;;;;;21.25;41.58;103337.50;6242246;22;46158;-80
2024/02/02 08:15:24;;;;;;;;;7.00;7.00;;;;;21.10;41.88;103317.47;6242669;22;45306;-79
2024/02/02 08:17:50;;;;;;;;;5.67;5.67;;;;;21.15;41.39;103321.47;6242484;22;45316;-78
2024/02/02 08:20:16;;;;;;;;;6.50;5.00;;;;;21.13;41.89;103319.88;6242231;22;45463;-80
2024/02/02 08:22:46;;;;;;;;;5.50;5.50;;;;;21.14;41.45;103321.56;6242611;22;46128;-78
2024/02/02 08:25:12;;;;;;;;;5.00;5.00;;;;;21.22;42.00;103331.56;6242466;22;45187;-80
2024/02/02 08:27:37;;;;;;;;;5.00;5.00;;;;;21.18;41.53;103337.09;6242135;22;45345;-80
2024/02/02 08:30:07;;;;;;;;;6.00;6.00;;;;;21.22;41.88;103337.72;6242146;22;45458;-79
2024/02/02 08:32:34;;;;;;;;;7.00;6.33;;;;;21.22;41.49;103339.53;6241914;22;46959;-80
2024/02/02 08:34:59;;;;;;;;;6.33;5.00;;;;;21.05;41.98;103315.97;6242453;22;45308;-78
2024/02/02 08:37:24;;;;;;;;;7.00;6.00;;;;;21.23;41.63;103341.22;6242490;22;45297;-78
2024/02/02 08:39:52;;;;;;;;;5.00;5.00;;;;;21.23;42.01;103335.94;6242256;22;45521;-80
2024/02/02 08:42:21;;;;;;;;;6.67;6.67;;;;;21.16;41.55;103322.28;6241716;22;46919;-79
2024/02/02 08:44:47;;;;;;;;;4.33;3.67;;;;;21.23;41.68;103333.28;6241977;22;45411;-80
2024/02/02 08:47:13;;;;;;;;;10.00;7.00;;;;;21.22;41.84;103343.03;6242316;22;45305;-80
2024/02/02 08:49:55;;;;;;;;;6.00;4.67;;;;;21.22;41.82;103339.53;6242196;22;45292;-77
2024/02/02 08:52:23;;;;;;;;;8.00;6.67;;;;;21.22;41.66;103339.53;6242054;22;46346;-78
2024/02/02 08:54:49;;;;;;;;;5.25;4.75;;;;;21.21;41.46;103336.03;6242072;22;45280;-79
2024/02/02 08:57:35;;;;;;;;;7.00;3.00;;;;;21.21;41.73;103327.25;6241546;22;45378;-79
2024/02/02 09:00:11;;;;;;;;;5.00;4.67;;;;;21.21;41.56;103330.72;6242630;22;45484;-79
2024/02/02 09:03:04;;;;;;;;;5.33;4.67;;;;;21.20;41.61;103323.75;6241725;22;46742;-79
2024/02/02 09:05:48;;;;;;;;;3.67;3.67;;;;;21.21;42.04;103327.25;6242058;22;45312;-79
2024/02/02 09:08:16;;;;;;;;;5.33;5.33;;;;;21.21;41.94;103328.06;6242077;22;45311;-81
2024/02/02 09:10:44;;;;;;;;;4.33;4.33;;;;;21.21;41.18;103328.06;6241862;22;45226;-81
2024/02/02 09:13:20;;;;;;;;;5.67;3.00;;;;;21.17;42.16;103319.53;6265851;22;46075;-77
2024/02/02 09:15:46;;;;;;;;;4.67;4.67;;;;;21.21;41.61;103325.44;6241877;22;45269;-81
2024/02/02 09:18:39;;;;;;;;;7.33;5.33;;;;;21.22;41.75;103323.63;6242059;22;45269;-79
2024/02/02 09:21:07;;;;;;;;;5.00;2.67;;;;;21.21;41.54;103337.84;6242700;22;45344;-79
2024/02/02 09:23:33;;;;;;;;;3.33;3.33;;;;;21.21;42.02;103338.66;6241546;22;47239;-80
2024/02/02 09:26:11;;;;;;;;;7.25;4.75;;;;;21.21;41.81;103338.66;6241378;22;45346;-78
2024/02/02 09:28:40;;;;;;;;;7.67;6.33;;;;;21.21;41.54;103338.66;6241865;22;45174;-80
2024/02/02 09:31:08;;;;;;;;;7.75;5.00;;;;;21.08;41.59;103312.25;6241588;22;45411;-78
2024/02/02 09:33:43;;;;;;;;;7.75;5.75;;;;;21.21;41.56;103336.03;6241410;22;45988;-79
2024/02/02 09:36:08;;;;;;;;;7.67;4.67;;;;;21.21;41.41;103346.63;6241997;22;45288;-80
2024/02/02 09:38:34;;;;;;;;;5.67;4.67;;;;;21.22;42.06;103336.88;6242151;22;45333;-80
2024/02/02 09:41:16;;;;;;;;;5.67;5.00;;;;;21.22;41.70;103332.44;6241461;22;45276;-80
2024/02/02 09:44:07;;;;;;;;;4.33;4.33;;;;;21.06;42.05;103306.25;6241454;22;46920;-80
2024/02/02 09:46:57;;;;;;;;;7.67;4.67;;;;;21.05;41.59;103307.22;6242035;22;45252;-79
2024/02/02 09:49:45;;;;;;;;;4.00;4.00;;;;;21.12;41.77;103323.47;6241734;22;45206;-80
2024/02/02 09:52:30;;;;;;;;;4.33;4.00;;;;;21.17;41.87;103335.44;6241505;22;45410;-80
2024/02/02 09:55:06;;;;;;;;;6.67;5.00;;;;;21.21;41.80;103340.50;6240841;22;46020;-80
2024/02/02 09:57:50;;;;;;;;;4.67;3.67;;;;;21.22;41.37;103339.53;6241937;22;45247;-78
2024/02/02 10:00:29;;;;;;;;;3.67;3.67;;;;;21.22;41.59;103343.03;6241400;22;45242;-78
2024/02/02 10:03:26;;;;;;;;;4.67;3.67;;;;;21.21;41.61;103336.03;6241595;22;45463;-78
2024/02/02 10:06:17;;;;;;;;;6.00;4.00;;;;;21.21;41.76;103333.38;6241658;22;45971;-79
2024/02/02 10:09:11;;;;;;;;;5.67;3.67;;;;;21.17;42.07;103326.63;6241003;22;45330;-80
2024/02/02 10:11:59;;;;;;;;;5.00;4.00;;;;;21.05;42.12;103305.38;6243112;22;45261;-80
2024/02/02 10:14:30;;;;;;;;;4.00;4.00;;;;;21.21;41.74;103335.19;6242845;22;45174;-80
2024/02/02 10:17:20;;;;;;;;;3.00;3.00;;;;;21.21;41.89;103338.66;6242857;22;45250;-80
2024/02/02 10:20:20;;;;;;;;;5.67;4.00;;;;;21.21;41.60;103328.06;6242839;22;45332;-80
2024/02/02 10:23:00;;;;;;;;;4.00;4.00;;;;;21.21;41.54;103332.56;6242451;22;45197;-80
2024/02/02 10:25:37;;;;;;;;;4.67;4.67;;;;;21.20;41.71;103334.34;6243125;22;45634;-79
2024/02/02 10:28:30;;;;;;;;;4.00;3.67;;;;;21.22;42.00;103339.53;6243255;22;45937;-75
2024/02/02 10:31:06;;;;;;;;;3.00;3.00;;;;;21.22;42.13;103339.53;6241472;22;45249;-77
2024/02/02 10:33:57;;;;;;;;;5.00;4.33;;;;;21.23;42.02;103341.22;6241359;22;45356;-75
2024/02/02 10:36:49;;;;;;;;;6.67;3.67;;;;;21.22;41.65;103337.72;6242838;22;45202;-77
2024/02/02 10:39:28;;;;;;;;;7.33;3.67;;;;;21.01;41.97;103305.69;6244306;22;45517;-86
2024/02/02 10:42:14;;;;;;;;;2.67;2.67;;;;;21.21;42.20;103336.03;6247511;22;45192;-87
2024/02/02 10:45:09;;;;;;;;;3.00;3.00;;;;;21.22;41.87;103337.72;6272396;22;45416;-87
2024/02/02 10:47:46;;;;;;;;;4.33;4.33;;;;;20.90;41.95;103288.81;6245040;22;45492;-87
2024/02/02 10:50:20;;;;;;;;;6.33;3.33;;;;;20.92;42.01;103294.00;6245036;22;47451;-86
2024/02/02 10:53:19;;;;;;;;;5.00;3.33;;;;;21.22;42.11;103340.38;6244481;22;45374;-86
2024/02/02 10:55:47;;;;;;;;;3.33;2.33;;;;;21.23;42.37;103339.44;6244418;22;45232;-88
2024/02/02 10:58:37;;;;;;;;;5.00;2.67;;;;;21.24;41.80;103335.81;6243884;22;45477;-88
2024/02/02 11:01:44;;;;;;;;;4.00;2.00;;;;;21.26;41.91;103338.34;6243901;22;47073;-86
2024/02/02 11:04:19;;;;;;;;;4.00;3.00;;;;;21.26;42.21;103338.34;6243490;22;45329;-86
2024/02/02 11:06:54;;;;;;;;;4.00;3.67;;;;;21.21;42.00;103341.31;6242888;22;45300;-86
2024/02/02 11:09:29;;;;;;;;;3.00;3.00;;;;;21.27;41.36;103329.44;6242934;22;45458;-86
2024/02/02 11:12:11;;;;;;;;;3.67;3.67;;;;;20.91;42.30;103281.72;6243860;22;46346;-87
2024/02/02 11:14:41;;;;;;;;;3.67;3.67;;;;;21.27;42.22;103326.78;6242903;22;45320;-85
2024/02/02 11:17:33;;;;;;;;;4.00;4.00;;;;;21.26;42.18;103325.94;6243463;22;45208;-86
2024/02/02 11:20:46;;;;;;;;;3.67;3.67;;;;;20.85;41.92;103248.63;6243192;22;45323;-86
2024/02/02 11:24:02;;;;;;;;;3.33;2.67;;;;;21.26;42.08;103310.03;6231774;22;46152;-86
2024/02/02 11:26:44;;;;;;;;;6.00;4.00;;;;;21.16;41.88;103294.00;6149548;22;45432;-86
2024/02/02 11:29:28;;;;;;;;;5.67;4.67;;;;;21.25;42.39;103300.44;6150932;23;45293;-87
2024/02/02 11:32:21;;;;;;;;;3.67;2.00;;;;;21.26;42.15;103309.22;6150197;23;45512;-87
2024/02/02 11:34:55;;;;;;;;;5.00;4.00;;;;;21.26;42.39;103320.63;6089790;23;46926;-85
2024/02/02 11:37:23;;;;;;;;;7.67;3.33;;;;;21.26;42.05;103303.94;6090145;23;45351;-84
2024/02/02 11:40:01;;;;;;;;;5.00;4.00;;;;;21.17;41.94;103302.81;6091407;23;45346;-86
2024/02/02 11:42:28;;;;;;;;;3.67;3.67;;;;;20.83;42.03;103221.44;6067511;23;45304;-84
2024/02/02 11:44:59;;;;;;;;;2.33;2.33;;;;;21.06;42.18;103261.25;6091059;23;47009;-84
2024/02/02 11:47:25;;;;;;;;;3.00;1.67;;;;;21.25;42.01;103292.50;6092308;23;45244;-85
2024/02/02 11:50:04;;;;;;;;;2.67;2.00;;;;;20.77;42.10;103230.66;6091487;23;45357;-86
2024/02/02 11:52:43;;;;;;;;;6.00;3.00;;;;;21.25;42.39;103278.41;6092712;23;45428;-86
2024/02/02 11:55:19;;;;;;;;;4.00;3.00;;;;;20.95;41.97;103238.19;6091345;23;47017;-87
2024/02/02 11:57:49;;;;;;;;;4.67;2.67;;;;;20.62;42.42;103177.09;6091546;23;45229;-86
2024/02/02 12:00:59;;;;;;;;;1.67;1.67;;;;;21.26;42.34;103280.09;6091924;23;45443;-87
2024/02/02 12:03:25;;;;;;;;;2.00;2.00;;;;;21.24;41.86;103274.91;6090850;23;45440;-87
2024/02/02 12:06:13;;;;;;;;;1.67;1.67;;;;;21.26;41.97;103280.91;6090079;23;46958;-85
2024/02/02 12:08:50;;;;;;;;;4.00;2.00;;;;;21.26;42.21;103285.41;6091857;23;45423;-85
2024/02/02 12:11:17;;;;;;;;;3.33;2.00;;;;;21.26;42.40;103283.56;6124213;23;45406;-85
2024/02/02 12:13:46;;;;;;;;;2.00;2.00;;;;;21.26;42.62;103278.28;6179648;23;45522;-87
2024/02/02 12:16:12;;;;;;;;;3.00;3.00;;;;;21.17;42.16;103265.75;6180139;23;46773;-87
2024/02/02 12:18:37;;;;;;;;;2.00;2.00;;;;;21.27;41.77;103281.78;6179313;23;45409;-87
2024/02/02 12:21:11;;;;;;;;;4.67;3.00;;;;;21.03;41.99;103232.34;6181329;23;45335;-88
2024/02/02 12:23:37;;;;;;;;;2.00;2.00;;;;;20.84;42.11;103204.59;6180069;23;45487;-88
2024/02/02 12:26:02;;;;;;;;;1.67;1.67;;;;;20.79;42.10;103188.22;6154554;23;46871;-89
2024/02/02 12:28:27;;;;;;;;;3.00;2.00;;;;;21.00;42.04;103230.75;6180843;23;45339;-86
2024/02/02 12:30:53;;;;;;;;;1.00;1.00;;;;;20.90;41.69;103198.00;6179987;23;45348;-87
2024/02/02 12:33:21;;;;;;;;;4.33;4.00;;;;;21.26;42.03;103254.44;6180541;23;45366;-87
2024/02/02 12:35:46;;;;;;;;;5.00;3.00;;;;;21.28;42.26;103268.44;6179960;23;46436;-84
2024/02/02 12:38:21;;;;;;;;;2.00;2.00;;;;;21.13;41.94;103230.69;6180456;23;45337;-87
2024/02/02 12:40:48;;;;;;;;;2.67;2.67;;;;;21.03;42.12;103222.63;6235036;22;45426;-86
2024/02/02 12:43:13;;;;;;;;;2.67;2.67;;;;;21.10;41.97;103232.75;6243297;22;45465;-87
2024/02/02 12:45:39;;;;;;;;;3.00;3.00;;;;;21.03;42.30;103222.63;6243380;22;46674;-88
2024/02/02 12:48:09;;;;;;;;;3.00;3.00;;;;;21.05;42.18;103215.41;6244372;22;45262;-87
2024/02/02 12:50:35;;;;;;;;;2.00;2.00;;;;;21.05;41.92;103210.09;6245036;22;45410;-89
2024/02/02 12:53:02;;;;;;;;;2.33;2.33;;;;;21.18;42.43;103233.84;6243563;22;45194;-89
2024/02/02 12:55:28;;;;;;;;;2.67;2.67;;;;;21.27;42.11;103242.91;6246184;22;46228;-87
2024/02/02 12:57:53;;;;;;;;;2.33;2.33;;;;;20.96;42.32;103192.25;6242551;22;45301;-83
2024/02/02 13:00:19;;;;;;;;;2.00;2.00;;;;;21.27;42.09;103242.06;6243312;22;45206;-82
2024/02/02 13:02:45;;;;;;;;;3.33;2.33;;;;;21.18;41.99;103227.72;6242419;22;45461;-81
2024/02/02 13:05:12;;;;;;;;;0.00;0.00;;;;;21.27;42.09;103234.97;6242603;22;45576;-78
2024/02/02 13:07:40;;;;;;;;;3.00;3.00;;;;;21.26;42.63;103227.97;6241243;22;45234;-78
2024/02/02 13:10:07;;;;;;;;;7.67;2.33;;;;;21.18;42.56;103220.59;6241936;22;45221;-82
2024/02/02 13:12:39;;;;;;;;;2.33;2.33;;;;;21.28;42.87;103228.72;6291638;22;45254;-80
2024/02/02 13:15:12;;;;;;;;;1.67;1.67;;;;;21.29;42.64;103227.75;6242054;22;47075;-81
2024/02/02 13:17:40;;;;;;;;;2.33;2.00;;;;;21.29;42.89;103227.75;6241446;22;45324;-79
2024/02/02 13:20:16;;;;;;;;;2.67;1.67;;;;;21.30;43.01;103215.34;6242175;22;45296;-80
2024/02/02 13:22:50;;;;;;;;;2.00;2.00;;;;;21.31;42.71;103225.00;6242147;22;45435;-80
2024/02/02 13:25:24;;;;;;;;;2.33;2.00;;;;;21.17;43.02;103200.41;6241353;22;46559;-81
2024/02/02 13:27:52;;;;;;;;;2.00;2.00;;;;;21.12;43.18;103199.06;6241879;22;45432;-80
2024/02/02 13:30:22;;;;;;;;;3.67;3.00;;;;;21.20;43.07;103211.72;6242434;22;45263;-77
2024/02/02 13:32:48;;;;;;;;;3.00;3.00;;;;;21.33;43.04;103224.88;6241458;22;45218;-81
2024/02/02 13:35:22;;;;;;;;;2.67;2.67;;;;;21.15;43.10;103190.91;6239757;22;46001;-85
2024/02/02 13:37:51;;;;;;;;;1.67;1.67;;;;;21.34;43.11;103216.78;6241954;22;45361;-86
2024/02/02 13:40:17;;;;;;;;;3.00;1.67;;;;;21.36;42.63;103217.53;6244122;22;45265;-86
2024/02/02 13:42:45;;;;;;;;;5.67;2.00;;;;;21.31;42.62;103208.25;6244932;22;45499;-87
2024/02/02 13:45:16;;;;;;;;;2.00;2.00;;;;;21.36;42.71;103208.75;6244171;22;46541;-86
2024/02/02 13:47:43;;;;;;;;;2.00;2.00;;;;;21.35;42.72;103199.94;6244386;22;45223;-87
2024/02/02 13:50:29;;;;;;;;;2.00;2.00;;;;;21.35;42.79;103207.03;6244416;22;45459;-88
2024/02/02 13:52:58;;;;;;;;;4.00;2.00;;;;;21.27;42.69;103192.59;6247037;22;45277;-87
2024/02/02 13:55:27;;;;;;;;;4.67;2.67;;;;;21.33;42.92;103196.59;6295080;22;45304;-89
2024/02/02 13:57:56;;;;;;;;;4.00;3.00;;;;;21.15;42.87;103167.91;6245766;22;45330;-88
2024/02/02 14:00:22;;;;;;;;;3.67;3.00;;;;;21.35;42.92;103196.47;6245201;22;45394;-88
2024/02/02 14:02:48;;;;;;;;;4.00;3.33;;;;;21.22;42.33;103176.22;6245942;22;45420;-88
2024/02/02 14:05:14;;;;;;;;;3.33;2.33;;;;;21.29;42.47;103185.38;6244541;22;46022;-88
2024/02/02 14:07:39;;;;;;;;;2.00;2.00;;;;;21.18;42.59;103175.59;6246234;22;45268;-89
2024/02/02 14:10:06;;;;;;;;;3.67;1.67;;;;;21.35;42.81;103194.66;6246126;22;45259;-89
2024/02/02 14:12:38;;;;;;;;;2.00;2.00;;;;;21.29;42.37;103188.03;6245711;22;45360;-89
2024/02/02 14:15:05;;;;;;;;;1.67;1.67;;;;;21.34;42.88;103186.84;6243206;22;45297;-88
2024/02/02 14:17:31;;;;;;;;;3.33;2.33;;;;;21.15;42.55;103154.69;6245255;22;45405;-85
2024/02/02 14:20:09;;;;;;;;;1.67;1.67;;;;;21.33;42.45;103188.63;6245627;22;45295;-87
2024/02/02 14:22:34;;;;;;;;;3.00;3.00;;;;;21.33;42.77;103191.28;6244833;22;45492;-87
2024/02/02 14:25:00;;;;;;;;;2.67;2.67;;;;;21.33;42.57;103188.63;6243798;22;45963;-88
2024/02/02 14:27:37;;;;;;;;;3.00;2.33;;;;;21.20;43.12;103162.25;6245281;22;45336;-88
2024/02/02 14:30:05;;;;;;;;;5.67;2.67;;;;;21.16;42.92;103156.34;6244848;22;45206;-87
2024/02/02 14:32:31;;;;;;;;;3.00;3.00;;;;;21.33;42.48;103179.84;6244124;22;45418;-88
2024/02/02 14:34:57;;;;;;;;;1.67;1.67;;;;;21.02;42.96;103124.81;6244914;22;45269;-88
2024/02/02 14:37:22;;;;;;;;;1.00;1.00;;;;;21.06;42.99;103137.69;6294832;22;45494;-88
2024/02/02 14:39:50;;;;;;;;;1.67;1.67;;;;;21.16;42.88;103145.75;6245313;22;45373;-89
2024/02/02 14:42:15;;;;;;;;;2.00;2.00;;;;;21.32;43.00;103170.19;6244309;22;45222;-88
2024/02/02 14:44:40;;;;;;;;;2.33;1.33;;;;;21.20;42.53;103150.81;6243955;22;45279;-87
2024/02/02 14:47:08;;;;;;;;;3.00;2.33;;;;;21.31;42.64;103166.75;6244766;22;45340;-86
2024/02/02 14:49:34;;;;;;;;;5.00;2.00;;;;;21.31;42.66;103160.59;6245101;22;45316;-86
2024/02/02 14:51:59;;;;;;;;;1.67;1.67;;;;;21.22;43.13;103140.94;6243932;22;45376;-80
2024/02/02 14:54:25;;;;;;;;;3.00;2.00;;;;;21.32;42.83;103164.91;6243113;22;45294;-76
2024/02/02 14:56:51;;;;;;;;;2.33;1.67;;;;;21.17;42.47;103143.97;6243416;22;45280;-83
2024/02/02 14:59:20;;;;;;;;;2.67;2.67;;;;;21.31;43.09;103163.25;6242866;22;45282;-84
2024/02/02 15:01:47;;;;;;;;;2.67;2.67;;;;;21.22;42.84;103143.59;6242966;22;45574;-84
2024/02/02 15:04:12;;;;;;;;;3.33;3.33;;;;;21.23;42.40;103147.94;6244049;22;46412;-83
2024/02/02 15:06:38;;;;;;;;;3.67;2.67;;;;;21.29;42.99;103152.75;6243388;22;45401;-84
2024/02/02 15:09:13;;;;;;;;;1.33;1.33;;;;;21.32;42.85;103163.09;6243890;22;45271;-85
2024/02/02 15:11:45;;;;;;;;;2.00;2.00;;;;;21.17;42.89;103130.72;6243772;22;45288;-84
2024/02/02 15:14:11;;;;;;;;;2.67;2.67;;;;;21.32;42.89;103160.47;6242818;22;47188;-84
2024/02/02 15:16:37;;;;;;;;;4.00;2.00;;;;;21.32;42.66;103149.03;6240518;22;45735;-81
2024/02/02 15:19:03;;;;;;;;;1.33;0.00;;;;;21.32;42.65;103159.63;6243419;22;45316;-81
2024/02/02 15:21:30;;;;;;;;;2.67;2.67;;;;;21.27;43.20;103146.75;6243283;22;45510;-81
2024/02/02 15:23:56;;;;;;;;;4.00;2.33;;;;;21.31;42.84;103150.84;6266957;22;45395;-81
2024/02/02 15:26:21;;;;;;;;;1.67;1.67;;;;;21.29;42.95;103148.31;6243026;22;45205;-82
2024/02/02 15:28:46;;;;;;;;;3.67;2.00;;;;;21.32;42.89;103146.38;6243359;22;45198;-77
2024/02/02 15:31:12;;;;;;;;;2.00;2.00;;;;;21.30;42.66;103146.50;6242971;22;45130;-79
2024/02/02 15:33:37;;;;;;;;;2.67;2.67;;;;;21.15;43.14;103124.72;6242275;22;46122;-80
2024/02/02 15:36:04;;;;;;;;;4.33;2.00;;;;;21.30;43.17;103151.81;6242507;22;45334;-78
2024/02/02 15:38:30;;;;;;;;;2.00;2.00;;;;;21.31;42.92;103155.31;6243319;22;45285;-82
2024/02/02 15:40:57;;;;;;;;;4.00;2.67;;;;;21.28;43.49;103156.38;6242653;22;45316;-81
2024/02/02 15:43:23;;;;;;;;;3.67;2.67;;;;;21.23;43.31;103146.16;6241521;22;46101;-79
2024/02/02 15:45:48;;;;;;;;;1.67;1.67;;;;;21.25;43.68;103153.97;6243052;22;45344;-77
2024/02/02 15:48:14;;;;;;;;;6.67;3.00;;;;;21.16;43.33;103145.75;6243870;22;45249;-80
2024/02/02 15:50:43;;;;;;;;;1.67;1.67;;;;;21.20;43.31;103143.72;6292954;22;45416;-82
2024/02/02 15:53:09;;;;;;;;;0.00;0.00;;;;;20.95;43.68;103098.78;6242718;22;46987;-81
2024/02/02 15:55:35;;;;;;;;;3.00;2.67;;;;;21.34;43.38;103161.19;6242542;22;45300;-79
2024/02/02 15:58:02;;;;;;;;;1.00;1.00;;;;;21.36;43.26;103163.72;6242077;22;45286;-79
2024/02/02 16:00:27;;;;;;;;;2.33;2.33;;;;;21.21;43.74;103150.69;6292591;22;45460;-78
2024/02/02 16:02:53;;;;;;;;;5.67;2.67;;;;;21.35;43.36;103167.31;6242636;22;45979;-75
2024/02/02 16:05:21;;;;;;;;;2.67;2.67;;;;;21.36;43.36;103163.72;6241530;22;45250;-77
2024/02/02 16:07:46;;;;;;;;;0.00;0.00;;;;;21.36;43.93;103171.66;6242343;22;45281;-76
2024/02/02 16:10:13;;;;;;;;;2.00;2.00;;;;;21.20;43.57;103146.38;6242842;22;45379;-77
2024/02/02 16:12:38;;;;;;;;;3.67;3.00;;;;;21.27;43.76;103162.63;6242410;22;45333;-78
2024/02/02 16:15:05;;;;;;;;;2.67;2.67;;;;;21.33;43.85;103172.75;6242202;22;45390;-77
2024/02/02 16:17:32;;;;;;;;;2.67;2.33;;;;;21.24;44.32;103157.56;6246499;22;45297;-77
2024/02/02 16:19:58;;;;;;;;;3.00;3.00;;;;;21.35;44.40;103168.19;6241651;22;45384;-76
2024/02/02 16:22:23;;;;;;;;;3.67;3.67;;;;;21.36;44.02;103174.31;6243454;22;45360;-76
2024/02/02 16:24:49;;;;;;;;;2.67;2.33;;;;;21.35;44.06;103167.31;6244690;22;45368;-78
2024/02/02 16:27:14;;;;;;;;;3.67;3.67;;;;;21.38;44.60;103170.59;6244107;22;45334;-77
2024/02/02 16:29:40;;;;;;;;;5.00;3.00;;;;;21.40;44.30;103175.75;6243862;22;45333;-78
2024/02/02 16:32:05;;;;;;;;;2.33;2.33;;;;;;;;6242393;22;45453;-79
2024/02/02 16:34:33;;;;;;;;;2.00;2.00;;;;;21.42;45.03;103181.78;6242680;22;45309;-79
2024/02/02 16:37:13;;;;;;;;;3.00;3.00;;;;;21.32;45.02;103156.97;5088983;27;45405;-77
2024/02/02 16:39:38;;;;;;;;;4.67;2.00;;;;;21.42;45.37;103173.81;5079251;27;45397;-76
2024/02/02 16:42:04;;;;;;;;;2.67;2.00;;;;;21.42;45.23;103168.53;5092632;27;45412;-76
2024/02/02 16:44:29;;;;;;;;;3.67;3.00;;;;;21.40;45.26;103168.66;5099628;27;45701;-76
2024/02/02 16:46:55;;;;;;;;;3.00;3.00;;;;;21.36;45.25;103164.56;5099094;27;45927;-76
2024/02/02 16:49:20;;;;;;;;;3.00;2.00;;;;;21.34;45.39;103165.66;5091127;27;45440;-76
2024/02/02 16:51:45;;;;;;;;;4.00;3.00;;;;;21.34;45.32;103160.38;5092903;27;45296;-77
2024/02/02 16:54:11;;;;;;;;;2.00;2.00;;;;;21.48;45.57;103186.59;5084457;27;45296;-76
2024/02/02 16:56:37;;;;;;;;;2.67;2.67;;;;;21.48;45.66;103188.41;5091832;27;45462;-75
2024/02/02 16:59:03;;;;;;;;;3.00;2.00;;;;;21.47;45.56;103178.75;5092474;27;45520;-76
2024/02/02 17:01:33;;;;;;;;;1.67;1.67;;;;;21.38;45.65;103164.44;5092373;27;45378;-79
2024/02/02 17:03:59;;;;;;;;;5.33;3.00;;;;;21.50;45.42;103183.81;5092516;27;45410;-79
2024/02/02 17:06:25;;;;;;;;;4.67;1.67;;;;;21.50;45.14;103176.72;5091850;27;46132;-78
2024/02/02 17:08:52;;;;;;;;;3.00;3.00;;;;;21.47;45.20;103171.66;5092430;27;45461;-79
2024/02/02 17:11:17;;;;;;;;;2.67;2.00;;;;;21.50;45.21;103171.44;5092376;27;45592;-76
2024/02/02 17:13:43;;;;;;;;;4.67;4.00;;;;;21.42;45.58;103154.47;5093448;27;45386;-80
2024/02/02 17:16:08;;;;;;;;;3.00;1.33;;;;;21.55;45.25;103175.50;5088062;27;45782;-80
2024/02/02 17:18:35;;;;;;;;;3.67;0.67;;;;;21.57;45.01;103178.91;5091983;27;45421;-80
2024/02/02 17:21:01;;;;;;;;;4.00;1.67;;;;;21.45;45.56;103165.66;5090840;27;45192;-83
2024/02/02 17:23:27;;;;;;;;;2.00;2.00;;;;;21.59;45.56;103180.47;5081147;27;45284;-83
2024/02/02 17:25:52;;;;;;;;;1.67;1.67;;;;;21.54;45.27;103168.56;5091068;27;45995;-74
2024/02/02 17:28:17;;;;;;;;;3.33;2.00;;;;;21.54;45.23;103168.56;5088820;27;45373;-76
2024/02/02 17:30:43;;;;;;;;;2.33;2.00;;;;;21.50;45.21;103157.34;5092160;27;45289;-75
2024/02/02 17:33:08;;;;;;;;;4.00;2.00;;;;;21.64;45.21;103182.75;5092512;27;45565;-76
2024/02/02 17:35:34;;;;;;;;;3.67;2.00;;;;;21.35;46.18;103133.75;5097880;27;45522;-83
2024/02/02 17:38:00;;;;;;;;;4.00;2.67;;;;;21.68;46.28;103180.69;5112500;27;45336;-76
2024/02/02 17:40:25;;;;;;;;;2.75;2.75;;;;;21.67;46.21;103179.88;5112626;27;45330;-77
2024/02/02 17:42:51;;;;;;;;;3.33;3.33;;;;;21.52;46.07;103153.59;5112522;27;45301;-80
2024/02/02 17:45:16;;;;;;;;;2.33;1.67;;;;;21.73;46.26;103189.97;5112844;27;45459;-79
2024/02/02 17:47:41;;;;;;;;;2.33;1.00;;;;;21.76;46.08;103186.25;5103143;27;45417;-81
2024/02/02 17:50:07;;;;;;;;;2.33;2.33;;;;;21.50;45.86;103147.59;5098658;27;45673;-81
2024/02/02 17:52:34;;;;;;;;;2.67;2.00;;;;;21.55;46.08;103147.22;5099101;27;45667;-79
2024/02/02 17:55:00;;;;;;;;;4.33;2.00;;;;;21.79;45.95;103185.16;5103812;27;46434;-82
2024/02/02 17:57:25;;;;;;;;;3.67;3.00;;;;;21.69;46.11;103170.00;5101091;27;45367;-84
2024/02/02 17:59:51;;;;;;;;;4.00;3.00;;;;;21.70;46.11;103173.50;5091033;27;45356;-81
2024/02/02 18:02:16;;;;;;;;;4.50;3.00;;;;;21.68;46.30;103165.66;5091115;27;45442;-87
2024/02/02 18:04:41;;;;;;;;;5.00;4.00;;;;;21.80;46.29;103189.50;5093158;27;46068;-85
2024/02/02 18:07:07;;;;;;;;;1.00;1.00;;;;;21.78;46.43;103186.13;5098242;27;45284;-83
2024/02/02 18:09:32;;;;;;;;;2.67;2.67;;;;;21.82;46.46;103195.50;5099541;27;45349;-78
2024/02/02 18:11:58;;;;;;;;;2.00;2.00;;;;;21.83;46.88;103192.72;5098756;27;45528;-78
2024/02/02 18:14:26;;;;;;;;;3.00;2.67;;;;;21.69;47.10;103162.03;5097763;27;45519;-79
2024/02/02 18:16:51;;;;;;;;;2.33;2.00;;;;;21.76;46.85;103169.50;5096967;27;45511;-84
2024/02/02 18:19:17;;;;;;;;;3.00;2.00;;;;;21.84;46.87;103180.34;5097952;27;45864;-79
2024/02/02 18:21:42;;;;;;;;;2.00;2.00;;;;;21.91;46.89;103178.09;5097852;27;45430;-79
2024/02/02 18:24:08;;;;;;;;;3.00;2.00;;;;;21.92;47.50;103174.44;5097645;27;45347;-78
2024/02/02 18:26:36;;;;;;;;;2.67;2.67;;;;;21.82;47.29;103156.63;5097947;27;45433;-81
2024/02/02 18:29:02;;;;;;;;;1.33;1.33;;;;;21.87;47.50;103164.22;5088058;27;45447;-80
2024/02/02 18:31:27;;;;;;;;;1.00;1.00;;;;;21.97;47.80;103169.63;5106692;27;45544;-80
2024/02/02 18:33:52;;;;;;;;;3.00;3.00;;;;;21.98;47.28;103171.31;5098090;27;47066;-79
2024/02/02 18:36:18;;;;;;;;;2.00;2.00;;;;;21.94;47.86;103161.91;5075970;28;45688;-80
2024/02/02 18:38:43;;;;;;;;;2.00;2.00;;;;;21.91;48.01;103157.69;5072602;28;45616;-80
2024/02/02 18:41:08;;;;;;;;;2.00;2.00;;;;;21.99;47.49;103172.16;5069268;28;45598;-79
2024/02/02 18:43:34;;;;;;;;;2.00;2.00;;;;;21.89;47.74;103158.78;5077296;28;46393;-78
2024/02/02 18:46:00;;;;;;;;;3.00;1.00;;;;;22.01;48.14;103179.03;5077002;28;45337;-77
2024/02/02 18:48:25;;;;;;;;;2.33;2.00;;;;;21.94;48.33;103170.72;5077292;27;45410;-83
2024/02/02 18:50:50;;;;;;;;;3.33;2.33;;;;;21.93;47.81;103165.53;5077966;28;45268;-81
2024/02/02 18:53:16;;;;;;;;;3.33;3.00;;;;;22.05;47.98;103183.13;5076463;27;46883;-79
2024/02/02 18:55:41;;;;;;;;;3.00;2.00;;;;;21.96;48.01;103170.59;5074438;28;45460;-85